sensor_id;sensor_type;location;lat;lon;timestamp;P1;durP1;ratioP1;P2;durP2;ratioP2
50683;SDS011;36654;45.042;38.994;2022-08-07T00:01:03;7.40;;;3.95;;
50683;SDS011;36654;45.042;38.994;2022-08-07T00:03:29;8.77;;;4.25;;
50683;SDS011;36654;45.042;38.994;2022-08-07T00:05:54;9.25;;;4.47;;
50683;SDS011;36654;45.042;38.994;2022-08-07T00:08:20;8.40;;;4.63;;
50683;SDS011;36654;45.042;38.994;2022-08-07T00:10:49;9.55;;;5.03;;
50683;SDS011;36654;45.042;38.994;2022-08-07T00:13:16;10.48;;;4.60;;
50683;SDS011;36654;45.042;38.994;2022-08-07T00:15:44;9.48;;;4.75;;
50683;SDS011;36654;45.042;38.994;2022-08-07T00:18:10;9.23;;;4.10;;
50683;SDS011;36654;45.042;38.994;2022-08-07T00:20:37;8.27;;;4.63;;
50683;SDS011;36654;45.042;38.994;2022-08-07T00:23:03;9.38;;;4.90;;
50683;SDS011;36654;45.042;38.994;2022-08-07T00:25:32;8.15;;;4.65;;
50683;SDS011;36654;45.042;38.994;2022-08-07T00:27:59;9.90;;;4.80;;
50683;SDS011;36654;45.042;38.994;2022-08-07T00:30:24;9.80;;;4.85;;
50683;SDS011;36654;45.042;38.994;2022-08-07T00:32:50;12.77;;;4.88;;
50683;SDS011;36654;45.042;38.994;2022-08-07T00:35:16;9.13;;;4.15;;
50683;SDS011;36654;45.042;38.994;2022-08-07T00:37:43;10.93;;;5.25;;
50683;SDS011;36654;45.042;38.994;2022-08-07T00:40:09;8.95;;;4.40;;
50683;SDS011;36654;45.042;38.994;2022-08-07T00:42:35;7.72;;;4.35;;
50683;SDS011;36654;45.042;38.994;2022-08-07T00:45:01;11.02;;;5.03;;
50683;SDS011;36654;45.042;38.994;2022-08-07T00:47:27;8.18;;;4.22;;
50683;SDS011;36654;45.042;38.994;2022-08-07T00:49:52;9.48;;;4.80;;
50683;SDS011;36654;45.042;38.994;2022-08-07T00:52:18;8.52;;;4.45;;
50683;SDS011;36654;45.042;38.994;2022-08-07T00:54:44;9.10;;;4.70;;
50683;SDS011;36654;45.042;38.994;2022-08-07T00:57:10;9.82;;;4.57;;
50683;SDS011;36654;45.042;38.994;2022-08-07T00:59:38;9.38;;;4.85;;
50683;SDS011;36654;45.042;38.994;2022-08-07T01:02:04;9.90;;;5.10;;
50683;SDS011;36654;45.042;38.994;2022-08-07T01:04:31;9.35;;;4.93;;
50683;SDS011;36654;45.042;38.994;2022-08-07T01:06:57;8.52;;;4.65;;
50683;SDS011;36654;45.042;38.994;2022-08-07T01:09:23;9.00;;;5.15;;
50683;SDS011;36654;45.042;38.994;2022-08-07T01:11:50;8.52;;;5.05;;
50683;SDS011;36654;45.042;38.994;2022-08-07T01:14:17;11.32;;;5.28;;
50683;SDS011;36654;45.042;38.994;2022-08-07T01:16:45;10.07;;;4.93;;
50683;SDS011;36654;45.042;38.994;2022-08-07T01:19:11;10.82;;;4.80;;
50683;SDS011;36654;45.042;38.994;2022-08-07T01:21:37;12.38;;;5.22;;
50683;SDS011;36654;45.042;38.994;2022-08-07T01:24:04;10.45;;;5.80;;
50683;SDS011;36654;45.042;38.994;2022-08-07T01:26:31;8.95;;;5.57;;
50683;SDS011;36654;45.042;38.994;2022-08-07T01:28:57;10.18;;;5.28;;
50683;SDS011;36654;45.042;38.994;2022-08-07T01:31:24;9.27;;;4.57;;
50683;SDS011;36654;45.042;38.994;2022-08-07T01:33:58;9.15;;;4.68;;
50683;SDS011;36654;45.042;38.994;2022-08-07T01:36:26;11.30;;;5.00;;
50683;SDS011;36654;45.042;38.994;2022-08-07T01:38:53;10.23;;;4.95;;
50683;SDS011;36654;45.042;38.994;2022-08-07T01:41:20;10.75;;;4.80;;
50683;SDS011;36654;45.042;38.994;2022-08-07T01:43:46;10.63;;;4.78;;
50683;SDS011;36654;45.042;38.994;2022-08-07T01:46:13;11.07;;;4.93;;
50683;SDS011;36654;45.042;38.994;2022-08-07T01:48:40;10.38;;;5.10;;
50683;SDS011;36654;45.042;38.994;2022-08-07T01:51:07;8.65;;;4.88;;
50683;SDS011;36654;45.042;38.994;2022-08-07T01:53:36;8.88;;;4.80;;
50683;SDS011;36654;45.042;38.994;2022-08-07T01:56:14;8.05;;;4.38;;
50683;SDS011;36654;45.042;38.994;2022-08-07T01:59:08;9.82;;;5.03;;
50683;SDS011;36654;45.042;38.994;2022-08-07T02:01:39;11.65;;;4.53;;
50683;SDS011;36654;45.042;38.994;2022-08-07T02:04:15;9.98;;;4.30;;
50683;SDS011;36654;45.042;38.994;2022-08-07T02:06:49;8.15;;;5.00;;
50683;SDS011;36654;45.042;38.994;2022-08-07T02:09:18;9.68;;;4.20;;
50683;SDS011;36654;45.042;38.994;2022-08-07T02:11:46;9.27;;;4.40;;
50683;SDS011;36654;45.042;38.994;2022-08-07T02:14:14;9.20;;;4.40;;
50683;SDS011;36654;45.042;38.994;2022-08-07T02:16:42;10.02;;;4.45;;
50683;SDS011;36654;45.042;38.994;2022-08-07T02:19:12;9.85;;;4.28;;
50683;SDS011;36654;45.042;38.994;2022-08-07T02:21:38;9.07;;;4.55;;
50683;SDS011;36654;45.042;38.994;2022-08-07T02:24:06;8.60;;;4.60;;
50683;SDS011;36654;45.042;38.994;2022-08-07T02:26:33;9.73;;;4.22;;
50683;SDS011;36654;45.042;38.994;2022-08-07T02:29:01;7.38;;;3.90;;
50683;SDS011;36654;45.042;38.994;2022-08-07T02:31:29;7.75;;;4.05;;
50683;SDS011;36654;45.042;38.994;2022-08-07T02:33:56;9.02;;;4.70;;
50683;SDS011;36654;45.042;38.994;2022-08-07T02:36:24;9.80;;;4.10;;
50683;SDS011;36654;45.042;38.994;2022-08-07T02:38:53;10.25;;;4.10;;
50683;SDS011;36654;45.042;38.994;2022-08-07T02:41:20;10.25;;;4.35;;
50683;SDS011;36654;45.042;38.994;2022-08-07T02:43:47;8.63;;;3.97;;
50683;SDS011;36654;45.042;38.994;2022-08-07T02:46:14;9.90;;;4.35;;
50683;SDS011;36654;45.042;38.994;2022-08-07T02:48:42;8.80;;;4.00;;
50683;SDS011;36654;45.042;38.994;2022-08-07T02:51:09;7.80;;;4.32;;
50683;SDS011;36654;45.042;38.994;2022-08-07T02:53:37;10.73;;;3.90;;
50683;SDS011;36654;45.042;38.994;2022-08-07T02:56:05;8.55;;;4.20;;
50683;SDS011;36654;45.042;38.994;2022-08-07T02:58:36;7.50;;;3.75;;
50683;SDS011;36654;45.042;38.994;2022-08-07T03:01:04;8.43;;;4.20;;
50683;SDS011;36654;45.042;38.994;2022-08-07T03:03:32;7.35;;;4.05;;
50683;SDS011;36654;45.042;38.994;2022-08-07T03:05:58;8.13;;;3.78;;
50683;SDS011;36654;45.042;38.994;2022-08-07T03:08:26;7.95;;;3.80;;
50683;SDS011;36654;45.042;38.994;2022-08-07T03:10:53;13.95;;;4.15;;
50683;SDS011;36654;45.042;38.994;2022-08-07T03:13:20;6.43;;;3.40;;
50683;SDS011;36654;45.042;38.994;2022-08-07T03:15:46;8.10;;;3.95;;
50683;SDS011;36654;45.042;38.994;2022-08-07T03:18:13;8.10;;;3.90;;
50683;SDS011;36654;45.042;38.994;2022-08-07T03:20:40;8.13;;;3.67;;
50683;SDS011;36654;45.042;38.994;2022-08-07T03:23:06;7.38;;;3.58;;
50683;SDS011;36654;45.042;38.994;2022-08-07T03:25:34;5.75;;;3.22;;
50683;SDS011;36654;45.042;38.994;2022-08-07T03:28:03;8.18;;;4.35;;
50683;SDS011;36654;45.042;38.994;2022-08-07T03:30:30;8.60;;;3.80;;
50683;SDS011;36654;45.042;38.994;2022-08-07T03:32:58;8.05;;;3.78;;
50683;SDS011;36654;45.042;38.994;2022-08-07T03:35:26;7.07;;;3.97;;
50683;SDS011;36654;45.042;38.994;2022-08-07T03:37:55;6.85;;;3.40;;
50683;SDS011;36654;45.042;38.994;2022-08-07T03:40:25;6.38;;;3.60;;
50683;SDS011;36654;45.042;38.994;2022-08-07T03:42:52;7.03;;;3.97;;
50683;SDS011;36654;45.042;38.994;2022-08-07T03:45:20;10.32;;;3.75;;
50683;SDS011;36654;45.042;38.994;2022-08-07T03:47:48;7.30;;;3.53;;
50683;SDS011;36654;45.042;38.994;2022-08-07T03:50:14;7.97;;;3.92;;
50683;SDS011;36654;45.042;38.994;2022-08-07T03:52:41;6.55;;;3.60;;
50683;SDS011;36654;45.042;38.994;2022-08-07T03:55:09;8.38;;;4.20;;
50683;SDS011;36654;45.042;38.994;2022-08-07T03:57:35;6.78;;;4.03;;
50683;SDS011;36654;45.042;38.994;2022-08-07T04:00:02;11.05;;;4.07;;
50683;SDS011;36654;45.042;38.994;2022-08-07T04:02:29;8.00;;;3.78;;
50683;SDS011;36654;45.042;38.994;2022-08-07T04:04:55;6.55;;;3.60;;
50683;SDS011;36654;45.042;38.994;2022-08-07T04:07:21;7.18;;;3.70;;
50683;SDS011;36654;45.042;38.994;2022-08-07T04:09:47;7.22;;;3.60;;
50683;SDS011;36654;45.042;38.994;2022-08-07T04:12:14;9.40;;;3.80;;
50683;SDS011;36654;45.042;38.994;2022-08-07T04:14:40;7.63;;;3.63;;
50683;SDS011;36654;45.042;38.994;2022-08-07T04:17:07;8.55;;;3.72;;
50683;SDS011;36654;45.042;38.994;2022-08-07T04:19:34;7.90;;;3.53;;
50683;SDS011;36654;45.042;38.994;2022-08-07T04:22:00;5.93;;;3.33;;
50683;SDS011;36654;45.042;38.994;2022-08-07T04:24:26;8.32;;;4.18;;
50683;SDS011;36654;45.042;38.994;2022-08-07T04:26:53;6.43;;;3.45;;
50683;SDS011;36654;45.042;38.994;2022-08-07T04:29:18;7.00;;;3.50;;
50683;SDS011;36654;45.042;38.994;2022-08-07T04:31:44;6.07;;;3.45;;
50683;SDS011;36654;45.042;38.994;2022-08-07T04:34:10;7.10;;;3.38;;
50683;SDS011;36654;45.042;38.994;2022-08-07T04:36:37;7.53;;;3.60;;
50683;SDS011;36654;45.042;38.994;2022-08-07T04:39:04;7.28;;;4.20;;
50683;SDS011;36654;45.042;38.994;2022-08-07T04:41:30;8.10;;;3.60;;
50683;SDS011;36654;45.042;38.994;2022-08-07T04:43:56;6.53;;;3.03;;
50683;SDS011;36654;45.042;38.994;2022-08-07T05:00:25;9.05;;;3.25;;
50683;SDS011;36654;45.042;38.994;2022-08-07T05:03:46;6.55;;;3.38;;
50683;SDS011;36654;45.042;38.994;2022-08-07T05:06:06;5.90;;;3.00;;
50683;SDS011;36654;45.042;38.994;2022-08-07T05:08:54;6.88;;;3.30;;
50683;SDS011;36654;45.042;38.994;2022-08-07T05:11:31;6.47;;;3.10;;
50683;SDS011;36654;45.042;38.994;2022-08-07T05:14:00;11.75;;;3.40;;
50683;SDS011;36654;45.042;38.994;2022-08-07T05:16:30;7.25;;;3.20;;
50683;SDS011;36654;45.042;38.994;2022-08-07T05:19:03;8.25;;;3.45;;
50683;SDS011;36654;45.042;38.994;2022-08-07T05:21:41;7.80;;;3.20;;
50683;SDS011;36654;45.042;38.994;2022-08-07T05:24:12;8.95;;;3.08;;
50683;SDS011;36654;45.042;38.994;2022-08-07T05:26:41;8.15;;;3.50;;
50683;SDS011;36654;45.042;38.994;2022-08-07T05:29:08;8.50;;;3.08;;
50683;SDS011;36654;45.042;38.994;2022-08-07T05:31:36;8.50;;;2.90;;
50683;SDS011;36654;45.042;38.994;2022-08-07T05:34:06;8.15;;;3.30;;
50683;SDS011;36654;45.042;38.994;2022-08-07T05:36:36;5.93;;;3.15;;
50683;SDS011;36654;45.042;38.994;2022-08-07T05:39:04;8.15;;;3.28;;
50683;SDS011;36654;45.042;38.994;2022-08-07T05:41:31;7.70;;;3.03;;
50683;SDS011;36654;45.042;38.994;2022-08-07T05:43:57;7.07;;;2.83;;
50683;SDS011;36654;45.042;38.994;2022-08-07T05:46:23;7.63;;;2.72;;
50683;SDS011;36654;45.042;38.994;2022-08-07T05:48:50;7.88;;;3.13;;
50683;SDS011;36654;45.042;38.994;2022-08-07T05:51:17;6.50;;;3.17;;
50683;SDS011;36654;45.042;38.994;2022-08-07T05:53:44;5.70;;;2.58;;
50683;SDS011;36654;45.042;38.994;2022-08-07T05:56:11;6.65;;;2.38;;
50683;SDS011;36654;45.042;38.994;2022-08-07T05:58:39;7.43;;;2.40;;
50683;SDS011;36654;45.042;38.994;2022-08-07T06:01:07;6.45;;;2.55;;
50683;SDS011;36654;45.042;38.994;2022-08-07T06:03:35;7.07;;;2.50;;
50683;SDS011;36654;45.042;38.994;2022-08-07T06:06:03;5.68;;;2.30;;
50683;SDS011;36654;45.042;38.994;2022-08-07T06:08:30;6.32;;;2.33;;
50683;SDS011;36654;45.042;38.994;2022-08-07T06:10:57;6.07;;;2.35;;
50683;SDS011;36654;45.042;38.994;2022-08-07T06:13:23;8.05;;;2.47;;
50683;SDS011;36654;45.042;38.994;2022-08-07T06:15:49;7.75;;;2.50;;
50683;SDS011;36654;45.042;38.994;2022-08-07T06:18:16;6.30;;;2.60;;
50683;SDS011;36654;45.042;38.994;2022-08-07T06:20:43;5.63;;;2.33;;
50683;SDS011;36654;45.042;38.994;2022-08-07T06:23:09;5.47;;;2.50;;
50683;SDS011;36654;45.042;38.994;2022-08-07T06:25:36;8.35;;;2.80;;
50683;SDS011;36654;45.042;38.994;2022-08-07T06:28:05;6.97;;;2.47;;
50683;SDS011;36654;45.042;38.994;2022-08-07T06:30:32;5.28;;;2.70;;
50683;SDS011;36654;45.042;38.994;2022-08-07T06:32:59;6.35;;;2.78;;
50683;SDS011;36654;45.042;38.994;2022-08-07T06:35:25;7.32;;;3.15;;
50683;SDS011;36654;45.042;38.994;2022-08-07T06:37:50;6.85;;;2.63;;
50683;SDS011;36654;45.042;38.994;2022-08-07T06:40:16;7.70;;;3.20;;
50683;SDS011;36654;45.042;38.994;2022-08-07T06:42:42;6.22;;;2.55;;
50683;SDS011;36654;45.042;38.994;2022-08-07T06:45:15;5.75;;;2.70;;
50683;SDS011;36654;45.042;38.994;2022-08-07T06:47:43;7.15;;;2.78;;
50683;SDS011;36654;45.042;38.994;2022-08-07T06:50:10;10.93;;;2.95;;
50683;SDS011;36654;45.042;38.994;2022-08-07T06:52:37;6.53;;;2.70;;
50683;SDS011;36654;45.042;38.994;2022-08-07T06:55:10;6.85;;;2.60;;
50683;SDS011;36654;45.042;38.994;2022-08-07T06:57:39;9.02;;;2.40;;
50683;SDS011;36654;45.042;38.994;2022-08-07T07:00:08;5.32;;;2.75;;
50683;SDS011;36654;45.042;38.994;2022-08-07T07:02:34;5.25;;;2.40;;
50683;SDS011;36654;45.042;38.994;2022-08-07T07:05:01;6.38;;;2.40;;
50683;SDS011;36654;45.042;38.994;2022-08-07T07:07:27;5.82;;;2.60;;
50683;SDS011;36654;45.042;38.994;2022-08-07T07:09:53;8.57;;;2.72;;
50683;SDS011;36654;45.042;38.994;2022-08-07T07:12:23;7.55;;;2.35;;
50683;SDS011;36654;45.042;38.994;2022-08-07T07:23:15;7.85;;;2.22;;
50683;SDS011;36654;45.042;38.994;2022-08-07T07:25:42;5.40;;;2.38;;
50683;SDS011;36654;45.042;38.994;2022-08-07T07:30:59;8.00;;;2.40;;
50683;SDS011;36654;45.042;38.994;2022-08-07T07:33:31;5.88;;;2.20;;
50683;SDS011;36654;45.042;38.994;2022-08-07T07:35:59;7.03;;;2.47;;
50683;SDS011;36654;45.042;38.994;2022-08-07T07:38:27;6.78;;;2.00;;
50683;SDS011;36654;45.042;38.994;2022-08-07T07:40:55;7.82;;;2.25;;
50683;SDS011;36654;45.042;38.994;2022-08-07T07:43:24;7.38;;;1.90;;
50683;SDS011;36654;45.042;38.994;2022-08-07T07:45:52;10.23;;;2.25;;
50683;SDS011;36654;45.042;38.994;2022-08-07T07:48:19;9.77;;;2.70;;
50683;SDS011;36654;45.042;38.994;2022-08-07T07:50:46;11.60;;;2.38;;
50683;SDS011;36654;45.042;38.994;2022-08-07T07:53:14;7.45;;;2.35;;
50683;SDS011;36654;45.042;38.994;2022-08-07T07:55:43;8.93;;;2.25;;
50683;SDS011;36654;45.042;38.994;2022-08-07T07:58:09;6.38;;;2.30;;
50683;SDS011;36654;45.042;38.994;2022-08-07T08:00:37;6.97;;;2.13;;
50683;SDS011;36654;45.042;38.994;2022-08-07T08:03:05;7.10;;;2.30;;
50683;SDS011;36654;45.042;38.994;2022-08-07T08:05:35;6.65;;;2.17;;
50683;SDS011;36654;45.042;38.994;2022-08-07T08:08:02;8.80;;;2.30;;
50683;SDS011;36654;45.042;38.994;2022-08-07T08:10:29;5.57;;;1.98;;
50683;SDS011;36654;45.042;38.994;2022-08-07T08:12:56;6.43;;;2.28;;
50683;SDS011;36654;45.042;38.994;2022-08-07T08:15:25;6.05;;;2.00;;
50683;SDS011;36654;45.042;38.994;2022-08-07T08:17:55;9.45;;;2.47;;
50683;SDS011;36654;45.042;38.994;2022-08-07T08:20:23;6.60;;;2.50;;
50683;SDS011;36654;45.042;38.994;2022-08-07T08:22:50;6.45;;;2.33;;
50683;SDS011;36654;45.042;38.994;2022-08-07T08:25:37;5.72;;;2.10;;
50683;SDS011;36654;45.042;38.994;2022-08-07T08:28:24;6.70;;;2.10;;
50683;SDS011;36654;45.042;38.994;2022-08-07T08:30:53;6.60;;;2.38;;
50683;SDS011;36654;45.042;38.994;2022-08-07T08:33:23;6.05;;;2.50;;
50683;SDS011;36654;45.042;38.994;2022-08-07T08:35:51;13.82;;;2.30;;
50683;SDS011;36654;45.042;38.994;2022-08-07T08:38:21;6.15;;;2.50;;
50683;SDS011;36654;45.042;38.994;2022-08-07T08:46:37;6.20;;;2.22;;
50683;SDS011;36654;45.042;38.994;2022-08-07T08:51:49;4.88;;;2.13;;
50683;SDS011;36654;45.042;38.994;2022-08-07T08:54:29;5.13;;;2.10;;
50683;SDS011;36654;45.042;38.994;2022-08-07T08:56:56;7.30;;;2.35;;
50683;SDS011;36654;45.042;38.994;2022-08-07T08:59:29;6.28;;;2.47;;
50683;SDS011;36654;45.042;38.994;2022-08-07T09:04:59;5.10;;;2.15;;
50683;SDS011;36654;45.042;38.994;2022-08-07T09:10:33;5.10;;;2.30;;
50683;SDS011;36654;45.042;38.994;2022-08-07T09:19:01;5.05;;;2.30;;
50683;SDS011;36654;45.042;38.994;2022-08-07T09:22:05;8.50;;;2.55;;
50683;SDS011;36654;45.042;38.994;2022-08-07T09:29:59;6.93;;;2.50;;
50683;SDS011;36654;45.042;38.994;2022-08-07T09:35:02;6.07;;;2.10;;
50683;SDS011;36654;45.042;38.994;2022-08-07T09:40:14;7.22;;;2.00;;
50683;SDS011;36654;45.042;38.994;2022-08-07T09:48:15;5.65;;;2.15;;
50683;SDS011;36654;45.042;38.994;2022-08-07T09:53:54;6.32;;;2.28;;
50683;SDS011;36654;45.042;38.994;2022-08-07T10:20:24;10.18;;;1.98;;
50683;SDS011;36654;45.042;38.994;2022-08-07T10:37:09;5.65;;;2.58;;
50683;SDS011;36654;45.042;38.994;2022-08-07T10:42:34;7.05;;;2.20;;
50683;SDS011;36654;45.042;38.994;2022-08-07T10:53:38;6.10;;;2.30;;
50683;SDS011;36654;45.042;38.994;2022-08-07T11:01:48;4.20;;;1.85;;
50683;SDS011;36654;45.042;38.994;2022-08-07T11:04:23;6.63;;;2.30;;
50683;SDS011;36654;45.042;38.994;2022-08-07T11:09:40;6.10;;;2.28;;
50683;SDS011;36654;45.042;38.994;2022-08-07T11:12:23;7.32;;;2.28;;
50683;SDS011;36654;45.042;38.994;2022-08-07T11:14:59;8.88;;;2.58;;
50683;SDS011;36654;45.042;38.994;2022-08-07T11:17:29;5.88;;;2.38;;
50683;SDS011;36654;45.042;38.994;2022-08-07T11:22:35;5.32;;;2.20;;
50683;SDS011;36654;45.042;38.994;2022-08-07T11:25:13;5.30;;;2.38;;
50683;SDS011;36654;45.042;38.994;2022-08-07T11:30:23;5.53;;;2.00;;
50683;SDS011;36654;45.042;38.994;2022-08-07T11:32:56;6.43;;;2.35;;
50683;SDS011;36654;45.042;38.994;2022-08-07T11:35:33;6.25;;;2.00;;
50683;SDS011;36654;45.042;38.994;2022-08-07T11:38:19;6.75;;;2.20;;
50683;SDS011;36654;45.042;38.994;2022-08-07T11:43:49;8.63;;;2.17;;
50683;SDS011;36654;45.042;38.994;2022-08-07T11:55:00;5.95;;;2.22;;
50683;SDS011;36654;45.042;38.994;2022-08-07T11:57:46;6.07;;;2.20;;
50683;SDS011;36654;45.042;38.994;2022-08-07T12:03:25;8.10;;;2.43;;
50683;SDS011;36654;45.042;38.994;2022-08-07T12:12:01;6.53;;;2.33;;
50683;SDS011;36654;45.042;38.994;2022-08-07T12:14:29;6.53;;;2.25;;
50683;SDS011;36654;45.042;38.994;2022-08-07T12:17:04;7.22;;;2.05;;
50683;SDS011;36654;45.042;38.994;2022-08-07T12:19:58;6.40;;;2.13;;
50683;SDS011;36654;45.042;38.994;2022-08-07T12:22:55;7.43;;;2.10;;
50683;SDS011;36654;45.042;38.994;2022-08-07T12:25:51;8.38;;;2.40;;
50683;SDS011;36654;45.042;38.994;2022-08-07T12:31:14;4.97;;;2.17;;
50683;SDS011;36654;45.042;38.994;2022-08-07T12:33:46;4.90;;;2.00;;
50683;SDS011;36654;45.042;38.994;2022-08-07T12:36:14;7.07;;;2.40;;
50683;SDS011;36654;45.042;38.994;2022-08-07T12:38:41;6.00;;;2.20;;
50683;SDS011;36654;45.042;38.994;2022-08-07T12:41:09;6.40;;;1.92;;
50683;SDS011;36654;45.042;38.994;2022-08-07T12:43:36;6.57;;;2.22;;
50683;SDS011;36654;45.042;38.994;2022-08-07T12:48:49;4.70;;;1.95;;
50683;SDS011;36654;45.042;38.994;2022-08-07T12:51:45;6.55;;;2.10;;
50683;SDS011;36654;45.042;38.994;2022-08-07T12:54:36;5.75;;;2.28;;
50683;SDS011;36654;45.042;38.994;2022-08-07T12:57:11;5.90;;;2.05;;
50683;SDS011;36654;45.042;38.994;2022-08-07T12:59:41;4.80;;;2.17;;
50683;SDS011;36654;45.042;38.994;2022-08-07T13:05:08;5.38;;;2.05;;
50683;SDS011;36654;45.042;38.994;2022-08-07T13:07:55;6.38;;;2.17;;
50683;SDS011;36654;45.042;38.994;2022-08-07T13:16:07;5.88;;;2.10;;
50683;SDS011;36654;45.042;38.994;2022-08-07T13:21:33;7.82;;;2.03;;
50683;SDS011;36654;45.042;38.994;2022-08-07T13:24:23;7.10;;;2.30;;
50683;SDS011;36654;45.042;38.994;2022-08-07T13:38:16;5.15;;;2.00;;
50683;SDS011;36654;45.042;38.994;2022-08-07T13:43:41;5.43;;;2.25;;
50683;SDS011;36654;45.042;38.994;2022-08-07T13:46:10;5.38;;;2.13;;
50683;SDS011;36654;45.042;38.994;2022-08-07T13:48:38;5.93;;;2.53;;
50683;SDS011;36654;45.042;38.994;2022-08-07T13:51:08;8.00;;;2.70;;
50683;SDS011;36654;45.042;38.994;2022-08-07T13:53:39;8.18;;;2.25;;
50683;SDS011;36654;45.042;38.994;2022-08-07T13:56:09;4.78;;;2.30;;
50683;SDS011;36654;45.042;38.994;2022-08-07T13:58:40;4.18;;;2.15;;
50683;SDS011;36654;45.042;38.994;2022-08-07T14:01:26;5.95;;;2.30;;
50683;SDS011;36654;45.042;38.994;2022-08-07T14:03:57;5.57;;;2.20;;
50683;SDS011;36654;45.042;38.994;2022-08-07T14:06:38;5.55;;;2.50;;
50683;SDS011;36654;45.042;38.994;2022-08-07T14:09:28;5.25;;;2.22;;
50683;SDS011;36654;45.042;38.994;2022-08-07T14:11:57;5.97;;;2.25;;
50683;SDS011;36654;45.042;38.994;2022-08-07T14:14:28;7.18;;;2.50;;
50683;SDS011;36654;45.042;38.994;2022-08-07T14:17:00;5.75;;;2.40;;
50683;SDS011;36654;45.042;38.994;2022-08-07T14:19:31;5.10;;;2.28;;
50683;SDS011;36654;45.042;38.994;2022-08-07T14:22:01;5.82;;;2.60;;
50683;SDS011;36654;45.042;38.994;2022-08-07T14:24:34;5.28;;;2.20;;
50683;SDS011;36654;45.042;38.994;2022-08-07T14:27:13;6.28;;;2.35;;
50683;SDS011;36654;45.042;38.994;2022-08-07T14:29:41;5.85;;;2.17;;
50683;SDS011;36654;45.042;38.994;2022-08-07T14:32:12;6.07;;;2.20;;
50683;SDS011;36654;45.042;38.994;2022-08-07T14:34:40;8.75;;;2.40;;
50683;SDS011;36654;45.042;38.994;2022-08-07T14:37:09;6.80;;;2.40;;
50683;SDS011;36654;45.042;38.994;2022-08-07T14:39:37;5.53;;;2.17;;
50683;SDS011;36654;45.042;38.994;2022-08-07T14:42:09;7.57;;;2.42;;
50683;SDS011;36654;45.042;38.994;2022-08-07T14:44:37;5.88;;;2.25;;
50683;SDS011;36654;45.042;38.994;2022-08-07T14:47:08;4.75;;;1.80;;
50683;SDS011;36654;45.042;38.994;2022-08-07T14:49:36;6.30;;;2.53;;
50683;SDS011;36654;45.042;38.994;2022-08-07T14:52:03;6.88;;;2.45;;
50683;SDS011;36654;45.042;38.994;2022-08-07T14:54:31;6.70;;;2.05;;
50683;SDS011;36654;45.042;38.994;2022-08-07T14:56:59;5.95;;;2.40;;
50683;SDS011;36654;45.042;38.994;2022-08-07T14:59:29;5.05;;;2.38;;
50683;SDS011;36654;45.042;38.994;2022-08-07T15:02:07;5.75;;;2.13;;
50683;SDS011;36654;45.042;38.994;2022-08-07T15:04:38;5.25;;;2.15;;
50683;SDS011;36654;45.042;38.994;2022-08-07T15:07:08;7.07;;;2.50;;
50683;SDS011;36654;45.042;38.994;2022-08-07T15:09:39;5.93;;;2.30;;
50683;SDS011;36654;45.042;38.994;2022-08-07T15:12:08;4.97;;;2.33;;
50683;SDS011;36654;45.042;38.994;2022-08-07T15:14:36;7.93;;;2.10;;
50683;SDS011;36654;45.042;38.994;2022-08-07T15:17:13;6.07;;;2.38;;
50683;SDS011;36654;45.042;38.994;2022-08-07T15:19:46;7.10;;;2.38;;
50683;SDS011;36654;45.042;38.994;2022-08-07T15:22:15;6.90;;;2.40;;
50683;SDS011;36654;45.042;38.994;2022-08-07T15:24:42;7.93;;;2.13;;
50683;SDS011;36654;45.042;38.994;2022-08-07T15:27:15;5.25;;;1.90;;
50683;SDS011;36654;45.042;38.994;2022-08-07T15:29:47;6.38;;;2.20;;
50683;SDS011;36654;45.042;38.994;2022-08-07T15:32:20;5.68;;;2.13;;
50683;SDS011;36654;45.042;38.994;2022-08-07T15:34:48;5.82;;;2.40;;
50683;SDS011;36654;45.042;38.994;2022-08-07T15:37:17;5.70;;;2.30;;
50683;SDS011;36654;45.042;38.994;2022-08-07T15:39:59;6.13;;;2.03;;
50683;SDS011;36654;45.042;38.994;2022-08-07T15:45:07;4.88;;;2.28;;
50683;SDS011;36654;45.042;38.994;2022-08-07T15:47:37;7.80;;;2.25;;
50683;SDS011;36654;45.042;38.994;2022-08-07T15:50:08;6.28;;;2.10;;
50683;SDS011;36654;45.042;38.994;2022-08-07T15:52:40;6.93;;;1.90;;
50683;SDS011;36654;45.042;38.994;2022-08-07T15:55:09;6.47;;;2.15;;
50683;SDS011;36654;45.042;38.994;2022-08-07T15:57:38;5.10;;;2.33;;
50683;SDS011;36654;45.042;38.994;2022-08-07T16:00:10;5.18;;;1.75;;
50683;SDS011;36654;45.042;38.994;2022-08-07T16:02:43;6.07;;;2.10;;
50683;SDS011;36654;45.042;38.994;2022-08-07T16:05:11;6.82;;;2.03;;
50683;SDS011;36654;45.042;38.994;2022-08-07T16:07:42;5.75;;;2.17;;
50683;SDS011;36654;45.042;38.994;2022-08-07T16:10:23;5.25;;;2.38;;
50683;SDS011;36654;45.042;38.994;2022-08-07T16:21:33;6.30;;;2.00;;
50683;SDS011;36654;45.042;38.994;2022-08-07T16:29:15;4.93;;;1.98;;
50683;SDS011;36654;45.042;38.994;2022-08-07T16:31:57;6.40;;;3.10;;
50683;SDS011;36654;45.042;38.994;2022-08-07T16:37:03;7.80;;;2.45;;
50683;SDS011;36654;45.042;38.994;2022-08-07T16:42:44;7.38;;;2.15;;
50683;SDS011;36654;45.042;38.994;2022-08-07T16:56:18;9.52;;;3.10;;
50683;SDS011;36654;45.042;38.994;2022-08-07T16:59:00;10.55;;;3.28;;
50683;SDS011;36654;45.042;38.994;2022-08-07T17:01:35;8.80;;;3.13;;
50683;SDS011;36654;45.042;38.994;2022-08-07T17:07:23;7.53;;;3.50;;
50683;SDS011;36654;45.042;38.994;2022-08-07T17:10:03;9.27;;;2.92;;
50683;SDS011;36654;45.042;38.994;2022-08-07T17:15:25;8.73;;;3.08;;
50683;SDS011;36654;45.042;38.994;2022-08-07T17:18:04;7.00;;;2.67;;
50683;SDS011;36654;45.042;38.994;2022-08-07T17:20:39;7.70;;;2.88;;
50683;SDS011;36654;45.042;38.994;2022-08-07T17:25:55;8.17;;;2.90;;
50683;SDS011;36654;45.042;38.994;2022-08-07T17:28:31;5.70;;;2.50;;
50683;SDS011;36654;45.042;38.994;2022-08-07T17:31:14;7.07;;;2.90;;
50683;SDS011;36654;45.042;38.994;2022-08-07T17:33:49;5.10;;;2.53;;
50683;SDS011;36654;45.042;38.994;2022-08-07T17:36:22;13.95;;;7.05;;
50683;SDS011;36654;45.042;38.994;2022-08-07T17:41:46;7.30;;;2.85;;
50683;SDS011;36654;45.042;38.994;2022-08-07T17:49:39;6.00;;;2.75;;
50683;SDS011;36654;45.042;38.994;2022-08-07T17:52:10;7.53;;;2.78;;
50683;SDS011;36654;45.042;38.994;2022-08-07T17:54:46;6.75;;;2.55;;
50683;SDS011;36654;45.042;38.994;2022-08-07T18:00:05;7.03;;;2.80;;
50683;SDS011;36654;45.042;38.994;2022-08-07T18:05:39;9.25;;;2.97;;
50683;SDS011;36654;45.042;38.994;2022-08-07T18:08:21;8.48;;;2.70;;
50683;SDS011;36654;45.042;38.994;2022-08-07T18:11:03;7.28;;;3.15;;
50683;SDS011;36654;45.042;38.994;2022-08-07T18:13:45;8.00;;;3.20;;
50683;SDS011;36654;45.042;38.994;2022-08-07T18:16:31;7.78;;;2.88;;
50683;SDS011;36654;45.042;38.994;2022-08-07T18:21:43;7.65;;;3.50;;
50683;SDS011;36654;45.042;38.994;2022-08-07T18:27:04;6.05;;;2.90;;
50683;SDS011;36654;45.042;38.994;2022-08-07T18:32:42;7.20;;;3.00;;
50683;SDS011;36654;45.042;38.994;2022-08-07T18:38:36;9.45;;;4.28;;
50683;SDS011;36654;45.042;38.994;2022-08-07T18:47:06;10.15;;;4.80;;
50683;SDS011;36654;45.042;38.994;2022-08-07T18:57:48;9.10;;;4.63;;
50683;SDS011;36654;45.042;38.994;2022-08-07T19:00:49;8.48;;;4.70;;
50683;SDS011;36654;45.042;38.994;2022-08-07T19:03:17;8.07;;;4.60;;
50683;SDS011;36654;45.042;38.994;2022-08-07T19:11:18;9.57;;;4.63;;
50683;SDS011;36654;45.042;38.994;2022-08-07T19:19:28;7.15;;;3.90;;
50683;SDS011;36654;45.042;38.994;2022-08-07T19:24:53;6.43;;;3.65;;
50683;SDS011;36654;45.042;38.994;2022-08-07T19:27:19;6.28;;;3.38;;
50683;SDS011;36654;45.042;38.994;2022-08-07T19:29:55;8.55;;;3.85;;